map of BRU home
BRU - Airport
Location
City:  Brussels, Vlaams-Brabant (Flemish Brabant), Belgium
Near (Alt.):Zaventem
Name:Brussels Airport
Old (Alt.):Brussels National Airport
ICAO:EBBR
IATA:BRU

Details
Type:Airport (Aerodrome, Airfield)
Use:Public/Civil, Military, International (customs port of entry)
Latitude:5054'05"N (50.901389)
Longitude:429'04"E (4.484444)
Datum:WGS 1984
Elevation:184 ft (56 m)
Variation:1.24E (WMM2015 magnetic declination)
0.14 annual change
Runways:3
Longest:11936 × 148 ft (3638 × 45 m), paved

Time
Time Zone:UTC+1 (DST+2)
Local Time:

Weather
METAR:EBBR 152150Z 19004KT CAVOK 12/09 Q1015 NOSIG
TAF:EBBR 151704Z 1518/1624 17004KT CAVOK= TAF EDDF 151700Z 1518/1624 05004KT CAVOK

Related Locations
Nearby:
Farthest:CHT: 11938 mi / 19212 km
Waitangi [Tuuta], CIT, NZ

Find:

   beyond  
but within

Other Information
Maps:
NOTAMs:
Links:
Sources:

  
  • flag of Belgium
  • flag of Vlaams-Brabant (Flemish Brabant)
  

Airport Diagram

Airport diagram for BRU

Larger airport diagram (OBSOLETE) from NGA

Sectional Chart

Flight Planning
at skyvector.com

Satellite Image

Google Maps Satellite view

 

Copyright © 2004-2018 Karl L. Swartz. All rights reserved.
The Great Circle Mapper name and logo are trademarks of the Great Circle Mapper.
All other trademarks mentioned herein belong to their respective owners.
Please see credits for attibutions and further copyright information.

  Follow gcmap on Facebook Follow gcmap on Twitter Follow gcmap on Google+ GCmap on LinkedIn

hCard Microformat

Geo Microformat